createdAt,value
2019-02-21T07:26:49.860Z,0.09
2019-02-21T07:28:50.011Z,0.19
2019-02-21T07:30:49.976Z,0.30
2019-02-21T07:32:49.991Z,0.37
2019-02-21T07:34:50.379Z,0.51
2019-02-21T07:36:50.674Z,0.59
2019-02-21T07:38:49.911Z,0.69
2019-02-21T07:40:50.049Z,0.73
2019-02-21T07:42:50.200Z,0.89
2019-02-21T07:44:50.582Z,0.90
2019-02-21T07:46:49.838Z,0.89
2019-02-21T07:48:49.840Z,0.93
2019-02-21T07:50:50.078Z,0.95
2019-02-21T07:52:50.086Z,0.98
2019-02-21T07:55:02.745Z,1.01
2019-02-21T07:56:50.416Z,1.07
2019-02-21T07:58:50.384Z,1.09
2019-02-21T08:00:50.461Z,1.17
2019-02-21T08:02:50.574Z,1.19
2019-02-21T08:04:50.227Z,1.35
2019-02-21T08:06:50.487Z,1.48
2019-02-21T08:08:50.574Z,1.58
2019-02-21T08:10:50.579Z,1.71
2019-02-21T08:12:50.629Z,1.71
2019-02-21T08:14:50.696Z,1.75
2019-02-21T08:16:49.894Z,1.92
2019-02-21T08:18:49.908Z,2.15
2019-02-21T08:20:50.022Z,2.29
2019-02-21T08:22:50.128Z,2.48
2019-02-21T08:24:50.263Z,2.84
2019-02-21T08:26:50.418Z,2.94
2019-02-21T08:28:50.536Z,2.98
2019-02-21T08:30:50.605Z,2.98
2019-02-21T08:32:50.609Z,2.86
2019-02-21T08:34:50.252Z,2.80
2019-02-21T08:36:50.390Z,2.79
2019-02-21T08:38:50.401Z,2.76
2019-02-21T08:40:53.752Z,2.76
2019-02-21T08:42:49.693Z,2.97
2019-02-21T08:44:50.692Z,3.05
2019-02-21T08:46:49.950Z,3.15
2019-02-21T08:48:50.057Z,3.31
2019-02-21T08:50:50.468Z,3.43
2019-02-21T08:52:50.608Z,3.7
2019-02-21T08:55:01.093Z,3.7
2019-02-21T08:56:50.239Z,3.7
2019-02-21T08:58:50.231Z,3.9
2019-02-21T09:00:50.270Z,3.9
2019-02-21T09:02:50.316Z,4.0
2019-02-21T09:04:50.615Z,4.1
2019-02-21T09:06:49.950Z,4.1
2019-02-21T09:08:50.065Z,4.2
2019-02-21T09:10:50.281Z,4.4
2019-02-21T09:12:50.373Z,4.4
2019-02-21T09:14:50.407Z,4.5
2019-02-21T09:16:50.813Z,4.6
2019-02-21T09:18:49.825Z,4.7
2019-02-21T09:20:50.027Z,4.9
2019-02-21T09:22:50.143Z,4.9
2019-02-21T09:24:50.146Z,5.0
2019-02-21T09:26:50.269Z,5.2
2019-02-21T09:28:50.301Z,5.3
2019-02-21T09:30:50.278Z,5.5
2019-02-21T09:32:50.332Z,5.5
2019-02-21T09:34:50.688Z,5.7
2019-02-21T09:36:49.880Z,5.8
2019-02-21T09:38:49.973Z,6.0
2019-02-21T09:40:50.119Z,6.1
2019-02-21T09:42:50.118Z,6.1
2019-02-21T09:44:50.214Z,6.2
2019-02-21T09:46:50.413Z,6.3
2019-02-21T09:48:50.401Z,6.5
2019-02-21T09:50:50.644Z,6.6
2019-02-21T09:52:49.878Z,6.6
2019-02-21T09:54:50.280Z,6.9
2019-02-21T09:56:53.725Z,7.1
2019-02-21T09:58:50.045Z,7.3
2019-02-21T10:00:50.212Z,7.3
2019-02-21T10:02:56.621Z,7.5
2019-02-21T10:04:50.515Z,7.7
2019-02-21T10:06:49.965Z,8.0
2019-02-21T10:08:50.163Z,8.2
2019-02-21T10:10:50.377Z,8.4
2019-02-21T10:12:50.547Z,8.4
2019-02-21T10:14:50.818Z,8.5
2019-02-21T10:16:50.232Z,8.8
2019-02-21T10:18:50.419Z,9.0
2019-02-21T10:20:50.533Z,9.0
2019-02-21T10:22:50.760Z,9.2
2019-02-21T10:24:50.828Z,9.3
2019-02-21T10:26:50.178Z,9.6
2019-02-21T10:28:50.362Z,9.6
2019-02-21T10:30:50.532Z,9.8
2019-02-21T10:32:50.678Z,10.0
2019-02-21T10:34:52.318Z,10.2
2019-02-21T10:36:50.461Z,10.3
2019-02-21T10:38:50.730Z,10.3
2019-02-21T10:40:49.900Z,10.4
2019-02-21T10:42:50.085Z,10.6
2019-02-21T10:44:50.376Z,10.6
2019-02-21T10:46:50.714Z,10.8
2019-02-21T10:48:50.049Z,10.8
2019-02-21T10:50:50.261Z,11.0
2019-02-21T10:52:50.401Z,11.1
2019-02-21T10:54:50.728Z,11.20
2019-02-21T10:56:50.085Z,11.2
2019-02-21T10:58:50.270Z,11.29
2019-02-21T11:00:50.449Z,11.33
2019-02-21T11:02:50.686Z,11.49
2019-02-21T11:04:55.631Z,11.7
2019-02-21T11:06:50.050Z,11.7
2019-02-21T11:08:50.346Z,11.61
2019-02-21T11:10:50.529Z,11.29
2019-02-21T11:12:50.683Z,11.37
2019-02-21T11:14:49.931Z,11.48
2019-02-21T11:16:50.262Z,11.59
2019-02-21T11:18:50.439Z,11.32
2019-02-21T11:20:50.661Z,11.20
2019-02-21T11:22:49.978Z,11.07
2019-02-21T11:24:50.177Z,11.01
2019-02-21T11:26:50.587Z,10.93
2019-02-21T11:28:49.976Z,10.90
2019-02-21T11:30:50.245Z,10.69
2019-02-21T11:32:50.457Z,10.65
2019-02-21T11:34:50.030Z,10.86
2019-02-21T11:36:50.378Z,10.97
2019-02-21T11:38:50.512Z,11.00
2019-02-21T11:40:50.828Z,11.10
2019-02-21T11:42:49.980Z,11.35
2019-02-21T11:44:50.165Z,11.61
2019-02-21T11:46:50.592Z,11.83
2019-02-21T11:48:50.835Z,11.84
2019-02-21T11:50:50.141Z,11.68
2019-02-21T11:52:50.404Z,11.50
2019-02-21T11:54:50.564Z,11.57
2019-02-21T11:56:50.039Z,11.69
2019-02-21T11:58:50.170Z,11.77
2019-02-21T12:00:50.431Z,11.73
2019-02-21T12:02:50.557Z,11.64
2019-02-21T12:04:50.168Z,11.43
2019-02-21T12:06:50.560Z,11.38
2019-02-21T12:08:50.707Z,11.39
2019-02-21T12:10:51.522Z,11.43
2019-02-21T12:12:50.751Z,11.57
2019-02-21T12:14:49.884Z,11.63
2019-02-21T12:16:50.317Z,11.65
2019-02-21T12:18:50.540Z,11.50
2019-02-21T12:20:50.694Z,11.22
2019-02-21T12:22:50.662Z,11.02
2019-02-21T12:24:50.671Z,10.97
2019-02-21T12:26:49.863Z,10.80
2019-02-21T12:28:49.887Z,10.86
2019-02-21T12:30:50.091Z,10.85
2019-02-21T12:32:50.161Z,10.75
2019-02-21T12:34:50.491Z,10.63
2019-02-21T12:36:50.622Z,10.62
2019-02-21T12:38:49.973Z,10.63
2019-02-21T12:40:50.373Z,10.65
2019-02-21T12:42:50.744Z,10.77
2019-02-21T12:44:49.945Z,10.87
2019-02-21T12:46:50.264Z,10.91
2019-02-21T12:48:50.446Z,10.87
2019-02-21T12:50:50.553Z,10.70
2019-02-21T12:52:50.851Z,10.60
2019-02-21T12:54:52.231Z,10.61
2019-02-21T12:56:50.298Z,10.55
2019-02-21T12:58:50.368Z,10.53
2019-02-21T13:00:50.566Z,10.54
2019-02-21T13:02:50.843Z,10.51
2019-02-21T13:04:50.441Z,10.59
2019-02-21T13:06:49.873Z,10.65
2019-02-21T13:08:49.917Z,10.65
2019-02-21T13:10:50.006Z,10.69
2019-02-21T13:12:50.047Z,10.64
2019-02-21T13:14:50.081Z,10.55
2019-02-21T13:16:50.150Z,10.44
2019-02-21T13:18:50.275Z,10.31
2019-02-21T13:20:50.395Z,10.27
2019-02-21T13:22:50.630Z,10.32
2019-02-21T13:24:50.841Z,10.35
2019-02-21T13:26:50.158Z,10.52
2019-02-21T13:28:50.366Z,10.65
2019-02-21T13:30:50.550Z,10.73
2019-02-21T13:32:50.663Z,10.70
2019-02-21T13:34:50.021Z,10.63
2019-02-21T13:36:50.192Z,10.61
2019-02-21T13:38:50.167Z,10.70
2019-02-21T13:40:50.189Z,10.77
2019-02-21T13:42:50.268Z,10.77
2019-02-21T13:44:50.221Z,10.77
2019-02-21T13:46:50.335Z,10.76
2019-02-21T13:48:50.366Z,10.65
2019-02-21T13:50:50.367Z,10.59
2019-02-21T13:52:50.440Z,10.60
2019-02-21T13:54:50.458Z,10.59
2019-02-21T13:56:50.541Z,10.61
2019-02-21T13:58:49.839Z,10.63
2019-02-21T14:00:49.934Z,10.56
2019-02-21T14:02:50.026Z,10.52
2019-02-21T14:04:50.532Z,10.42
2019-02-21T14:06:49.748Z,10.35
2019-02-21T14:08:49.946Z,10.36
2019-02-21T14:10:50.238Z,10.38
2019-02-21T14:12:50.461Z,10.55
2019-02-21T14:14:50.636Z,10.71
2019-02-21T14:16:50.009Z,10.75
2019-02-21T14:18:50.121Z,10.74
2019-02-21T14:20:50.461Z,10.75
2019-02-21T14:22:50.731Z,10.67
2019-02-21T14:24:50.060Z,10.57
2019-02-21T14:26:50.328Z,10.57
2019-02-21T14:28:50.573Z,10.76
2019-02-21T14:30:50.772Z,11.09
2019-02-21T14:32:50.143Z,11.47
2019-02-21T14:34:50.798Z,11.53
2019-02-21T14:36:50.205Z,11.64
2019-02-21T14:38:50.378Z,11.93
2019-02-21T14:40:50.658Z,11.97
2019-02-21T14:42:49.947Z,12.00
2019-02-21T14:44:50.220Z,11.72
2019-02-21T14:46:50.666Z,11.43
2019-02-21T14:48:50.735Z,11.11
2019-02-21T14:50:49.834Z,10.90
2019-02-21T14:52:50.503Z,10.73
2019-02-21T14:54:50.471Z,10.66
2019-02-21T14:56:49.807Z,10.54
2019-02-21T14:58:49.880Z,10.53
2019-02-21T15:00:49.915Z,10.69
2019-02-21T15:02:50.290Z,10.77
2019-02-21T15:04:50.306Z,10.87
2019-02-21T15:06:50.514Z,10.97
2019-02-21T15:08:50.532Z,10.87
2019-02-21T15:10:53.175Z,10.90
2019-02-21T15:12:50.166Z,10.81
2019-02-21T15:14:50.268Z,10.71
2019-02-21T15:16:50.472Z,10.53
2019-02-21T15:18:50.516Z,10.44
2019-02-21T15:20:50.612Z,10.32
2019-02-21T15:22:49.826Z,10.26
2019-02-21T15:24:49.977Z,10.21
2019-02-21T15:26:50.163Z,10.16
2019-02-21T15:28:50.158Z,10.11
2019-02-21T15:30:50.237Z,10.07
2019-02-21T15:32:50.307Z,10.03
2019-02-21T15:34:49.874Z,10.00
2019-02-21T15:36:50.206Z,9.95
2019-02-21T15:38:50.190Z,9.92
2019-02-21T15:40:50.265Z,9.94
2019-02-21T15:42:53.208Z,10.05
2019-02-21T15:44:50.326Z,10.09
2019-02-21T15:46:50.483Z,10.09
2019-02-21T15:48:50.497Z,9.99
2019-02-21T15:50:49.736Z,9.94
2019-02-21T15:52:49.846Z,9.90
2019-02-21T15:54:49.999Z,9.80
2019-02-21T15:56:50.123Z,9.75
2019-02-21T15:58:50.157Z,9.72
2019-02-21T16:00:50.291Z,9.70
2019-02-21T16:02:50.342Z,9.72
2019-02-21T16:04:49.951Z,9.71
2019-02-21T16:06:52.323Z,9.74
2019-02-21T16:08:50.282Z,9.73
2019-02-21T16:10:50.400Z,9.72
2019-02-21T16:12:52.593Z,9.69
2019-02-21T16:14:50.285Z,9.66
2019-02-21T16:16:50.537Z,9.63
2019-02-21T16:18:50.473Z,9.59
2019-02-21T16:20:53.373Z,9.53
2019-02-21T16:22:50.580Z,9.48
2019-02-21T16:24:50.691Z,9.44
2019-02-21T16:26:49.806Z,9.39
2019-02-21T16:28:49.811Z,9.36
2019-02-21T16:30:49.929Z,9.26
2019-02-21T16:32:49.947Z,9.19
2019-02-21T16:34:50.385Z,9.15
2019-02-21T16:36:50.548Z,9.08
2019-02-21T16:38:50.567Z,9.02
2019-02-21T16:40:50.613Z,8.95
2019-02-21T16:42:50.567Z,8.95
2019-02-21T16:44:50.676Z,8.83
2019-02-21T16:46:49.810Z,8.75
2019-02-21T16:48:49.815Z,8.71
2019-02-21T16:50:49.977Z,8.59
2019-02-21T16:52:50.152Z,8.54
2019-02-21T16:54:50.248Z,8.44
2019-02-21T16:56:50.410Z,8.42
2019-02-21T16:58:50.401Z,8.34
2019-02-21T17:00:57.076Z,8.26
2019-02-21T17:02:50.079Z,8.23
2019-02-21T17:04:50.474Z,8.21
2019-02-21T17:06:50.596Z,8.20
2019-02-21T17:08:49.698Z,8.23
2019-02-21T17:10:49.776Z,8.22
2019-02-21T17:12:49.895Z,8.21
2019-02-21T17:14:49.960Z,8.21
2019-02-21T17:16:50.118Z,8.24
2019-02-21T17:18:50.216Z,8.25
2019-02-21T17:20:50.288Z,8.35
2019-02-21T17:22:50.460Z,8.37
2019-02-21T17:24:53.451Z,8.37
2019-02-21T17:26:50.682Z,8.39
2019-02-21T17:28:49.723Z,8.41
2019-02-21T17:30:49.856Z,8.39
2019-02-21T17:32:49.922Z,8.35
2019-02-21T17:34:50.215Z,8.34
2019-02-21T17:36:50.382Z,8.39
2019-02-21T17:38:50.376Z,8.43
2019-02-21T17:40:50.482Z,8.45
2019-02-21T17:42:50.589Z,8.45
2019-02-21T17:44:50.551Z,8.45
2019-02-21T17:46:49.813Z,8.43
2019-02-21T17:48:49.895Z,8.45
2019-02-21T17:50:50.104Z,8.46
2019-02-21T17:52:50.281Z,8.46
2019-02-21T17:54:50.293Z,8.47
2019-02-21T17:56:50.541Z,8.43
2019-02-21T17:58:50.541Z,8.39
2019-02-21T18:00:50.588Z,8.37
2019-02-21T18:02:50.570Z,8.34
2019-02-21T18:04:49.945Z,8.33
2019-02-21T18:06:50.167Z,8.28
2019-02-21T18:08:50.184Z,8.24
2019-02-21T18:10:50.222Z,8.19
2019-02-21T18:12:50.328Z,8.18
2019-02-21T18:14:50.328Z,8.13
2019-02-21T18:16:50.516Z,8.06
2019-02-21T18:18:50.663Z,8.10
2019-02-21T18:20:49.727Z,8.12
2019-02-21T18:22:49.714Z,8.11
2019-02-21T18:24:49.857Z,8.04
2019-02-21T18:26:50.017Z,7.95
2019-02-21T18:28:50.060Z,7.96
2019-02-21T18:30:50.167Z,8.02
2019-02-21T18:32:50.151Z,8.00
2019-02-21T18:34:50.532Z,7.97
2019-02-21T18:36:49.703Z,7.89
2019-02-21T18:38:49.792Z,7.88
2019-02-21T18:40:49.838Z,7.88
2019-02-21T18:42:49.856Z,7.86
2019-02-21T18:44:49.887Z,7.86
2019-02-21T18:46:50.003Z,7.88
2019-02-21T18:48:50.079Z,7.87
2019-02-21T18:50:50.178Z,7.88
2019-02-21T18:52:50.118Z,7.90
2019-02-21T18:54:50.161Z,7.93
2019-02-21T18:56:50.354Z,7.94
2019-02-21T18:58:50.470Z,7.96
2019-02-21T19:00:50.451Z,7.96
2019-02-21T19:02:50.441Z,7.88
2019-02-21T19:04:49.837Z,7.78
2019-02-21T19:06:50.051Z,7.74
2019-02-21T19:08:50.135Z,7.62
2019-02-21T19:10:50.218Z,7.57
2019-02-21T19:12:50.216Z,7.48
2019-02-21T19:14:50.334Z,7.44
2019-02-21T19:16:50.538Z,7.50
2019-02-21T19:18:50.676Z,7.50
2019-02-21T19:20:50.793Z,7.48
2019-02-21T19:22:49.738Z,7.39
2019-02-21T19:24:49.826Z,7.39
2019-02-21T19:26:50.053Z,7.42
2019-02-21T19:28:50.055Z,7.49
2019-02-21T19:30:50.078Z,7.52
2019-02-21T19:32:50.166Z,7.57
2019-02-21T19:34:50.647Z,7.56
2019-02-21T19:36:49.802Z,7.54
2019-02-21T19:38:49.839Z,7.52
2019-02-21T19:40:49.845Z,7.56
2019-02-21T19:42:49.946Z,7.64
2019-02-21T19:44:50.045Z,7.66
2019-02-21T19:46:50.245Z,7.66
2019-02-21T19:48:50.265Z,7.67
2019-02-21T19:50:50.244Z,7.66
2019-02-21T19:52:50.327Z,7.68
2019-02-21T19:54:50.326Z,7.68
2019-02-21T19:56:50.556Z,7.62
2019-02-21T19:58:50.610Z,7.58
2019-02-21T20:00:49.733Z,7.57
2019-02-21T20:02:49.860Z,7.57
2019-02-21T20:04:50.374Z,7.54
2019-02-21T20:06:50.639Z,7.52
2019-02-21T20:08:50.653Z,7.52
2019-02-21T20:10:50.666Z,7.52
2019-02-21T20:12:49.757Z,7.49
2019-02-21T20:14:49.835Z,7.48
2019-02-21T20:16:50.174Z,7.42
2019-02-21T20:18:50.223Z,7.40
2019-02-21T20:20:50.281Z,7.38
2019-02-21T20:22:50.323Z,7.38
2019-02-21T20:24:50.301Z,7.39
2019-02-21T20:26:50.498Z,7.38
2019-02-21T20:28:50.543Z,7.36
2019-02-21T20:30:50.480Z,7.32
2019-02-21T20:32:50.533Z,7.31
2019-02-21T20:34:50.062Z,7.28
2019-02-21T20:36:51.758Z,7.31
2019-02-21T20:38:49.855Z,7.30
2019-02-21T20:40:49.868Z,7.31
2019-02-21T20:42:50.090Z,7.30
2019-02-21T20:44:50.143Z,7.30
2019-02-21T20:46:50.266Z,7.27
2019-02-21T20:48:50.300Z,7.22
2019-02-21T20:50:57.653Z,7.14
2019-02-21T20:52:49.747Z,7.04
2019-02-21T20:54:49.733Z,6.99
2019-02-21T20:56:49.955Z,7.00
2019-02-21T20:58:49.952Z,6.97
2019-02-21T21:00:49.980Z,6.92
2019-02-21T21:02:50.001Z,6.88
2019-02-21T21:04:50.442Z,6.78
2019-02-21T21:06:49.724Z,6.74
2019-02-21T21:08:49.825Z,6.74
2019-02-21T21:10:49.818Z,6.67
2019-02-21T21:12:49.883Z,6.64
2019-02-21T21:14:49.975Z,6.58
2019-02-21T21:16:50.265Z,6.51
2019-02-21T21:18:50.317Z,6.54
2019-02-21T21:20:50.335Z,6.57
2019-02-21T21:22:50.465Z,6.56
2019-02-21T21:24:50.487Z,6.51
2019-02-21T21:26:49.737Z,6.51
2019-02-21T21:28:49.725Z,6.47
2019-02-21T21:30:49.755Z,6.44
2019-02-21T21:32:49.864Z,6.42
2019-02-21T21:34:50.290Z,6.41
2019-02-21T21:36:50.561Z,6.40
2019-02-21T21:38:54.717Z,6.40
2019-02-21T21:40:49.756Z,6.42
2019-02-21T21:42:49.823Z,6.46
2019-02-21T21:44:49.991Z,6.52
2019-02-21T21:46:50.260Z,6.55
2019-02-21T21:48:50.351Z,6.72
2019-02-21T21:50:50.580Z,6.76
2019-02-21T21:52:50.576Z,6.85
2019-02-21T21:54:50.650Z,6.95
2019-02-21T21:56:49.895Z,7.09
2019-02-21T21:58:49.871Z,7.18
2019-02-21T22:00:50.057Z,7.18
2019-02-21T22:02:50.094Z,7.31
2019-02-21T22:04:50.538Z,7.31
2019-02-21T22:06:49.712Z,7.34
2019-02-21T22:08:49.826Z,7.41
2019-02-21T22:10:49.940Z,7.44
2019-02-21T22:12:50.025Z,7.48
2019-02-21T22:14:49.988Z,7.50
2019-02-21T22:16:50.138Z,7.55
2019-02-21T22:18:50.162Z,7.57
2019-02-21T22:20:50.200Z,7.62
2019-02-21T22:22:50.259Z,7.69
2019-02-21T22:24:50.317Z,7.74
2019-02-21T22:26:50.469Z,7.77
2019-02-21T22:28:50.487Z,7.78
2019-02-21T22:30:50.562Z,7.78
2019-02-21T22:32:50.562Z,7.80
2019-02-21T22:34:49.996Z,7.82
2019-02-21T22:36:50.131Z,7.85
2019-02-21T22:38:50.145Z,7.87
2019-02-21T22:40:50.132Z,7.90
2019-02-21T22:42:50.190Z,7.91
2019-02-21T22:44:50.300Z,7.92
2019-02-21T22:46:50.464Z,7.90
2019-02-21T22:48:50.550Z,7.89
2019-02-21T22:50:50.513Z,7.89
2019-02-21T22:52:50.570Z,7.90
2019-02-21T22:54:50.641Z,7.89
2019-02-21T22:56:50.013Z,7.87
2019-02-21T22:58:49.987Z,7.85
2019-02-21T23:00:50.024Z,7.84
2019-02-21T23:02:50.415Z,7.83
2019-02-21T23:04:49.869Z,7.82
2019-02-21T23:06:50.165Z,7.82
2019-02-21T23:08:50.177Z,7.82
2019-02-21T23:10:50.286Z,7.80
2019-02-21T23:12:50.298Z,7.79
2019-02-21T23:14:50.428Z,7.77
2019-02-21T23:16:49.688Z,7.77
2019-02-21T23:18:49.853Z,7.77
2019-02-21T23:20:49.862Z,7.77
2019-02-21T23:22:49.923Z,7.75
2019-02-21T23:24:49.995Z,7.77
2019-02-21T23:26:50.225Z,7.78
2019-02-21T23:28:50.216Z,7.78
2019-02-21T23:30:50.297Z,7.82
2019-02-21T23:32:50.276Z,7.84
2019-02-21T23:34:50.668Z,7.86
2019-02-21T23:36:49.788Z,7.87
2019-02-21T23:38:49.918Z,7.87
2019-02-21T23:40:49.961Z,7.86
2019-02-21T23:42:49.939Z,7.84
2019-02-21T23:44:49.952Z,7.84
2019-02-21T23:46:50.229Z,7.83
2019-02-21T23:48:50.221Z,7.84
2019-02-21T23:50:50.319Z,7.85
2019-02-21T23:52:50.383Z,7.85
2019-02-21T23:54:50.428Z,7.81
2019-02-21T23:56:50.674Z,7.78
2019-02-21T23:58:50.643Z,7.78
